createdAt,value
2019-03-09T00:05:59.304Z,7.90
2019-03-09T00:12:44.299Z,8.10
2019-03-09T00:19:29.318Z,8.10
2019-03-09T00:26:15.886Z,8.10
2019-03-09T00:33:02.334Z,8.10
2019-03-09T00:39:47.347Z,8.20
2019-03-09T00:46:32.199Z,8.20
2019-03-09T00:53:18.189Z,8.20
2019-03-09T01:00:03.183Z,8.10
2019-03-09T01:06:49.471Z,8.00
2019-03-09T01:13:34.311Z,8.00
2019-03-09T01:20:19.223Z,8.10
2019-03-09T01:27:04.141Z,8.20
2019-03-09T01:33:49.062Z,8.40
2019-03-09T01:40:34.145Z,8.50
2019-03-09T01:47:19.107Z,8.50
2019-03-09T01:54:04.877Z,8.40
2019-03-09T02:00:50.007Z,8.30
2019-03-09T02:07:35.075Z,8.30
2019-03-09T02:14:20.071Z,8.40
2019-03-09T02:21:04.982Z,8.50
2019-03-09T02:27:49.827Z,8.50
2019-03-09T02:34:34.720Z,8.70
2019-03-09T02:41:19.709Z,8.90
2019-03-09T02:48:04.645Z,8.90
2019-03-09T02:54:49.629Z,8.80
2019-03-09T03:01:39.227Z,8.90
2019-03-09T03:08:24.077Z,9.00
2019-03-09T03:15:11.750Z,8.90
2019-03-09T03:21:56.668Z,8.90
2019-03-09T03:28:41.503Z,9.00
2019-03-09T03:35:26.427Z,9.10
2019-03-09T03:42:11.288Z,9.20
2019-03-09T03:48:56.203Z,9.20
2019-03-09T03:55:41.287Z,9.30
2019-03-09T04:02:26.135Z,9.20
2019-03-09T04:09:11.352Z,9.20
2019-03-09T04:15:58.725Z,9.20
2019-03-09T04:22:43.651Z,9.10
2019-03-09T04:29:28.730Z,9.10
2019-03-09T04:36:13.667Z,9.10
2019-03-09T04:42:58.803Z,9.30
2019-03-09T04:49:43.744Z,9.30
2019-03-09T04:56:28.660Z,9.40
2019-03-09T05:03:13.607Z,9.40
2019-03-09T05:10:19.301Z,9.40
2019-03-09T05:17:04.223Z,9.40
2019-03-09T05:23:49.102Z,9.40
2019-03-09T05:30:38.567Z,9.20
2019-03-09T05:37:24.990Z,9.10
2019-03-09T05:44:09.994Z,9.00
2019-03-09T05:50:54.975Z,8.90
2019-03-09T05:57:39.820Z,8.80
2019-03-09T06:04:24.662Z,8.70
2019-03-09T06:11:09.814Z,8.70
2019-03-09T06:17:54.666Z,8.70
2019-03-09T06:24:39.603Z,8.70
2019-03-09T06:31:24.526Z,8.70
2019-03-09T06:38:45.831Z,8.60
2019-03-09T06:45:30.688Z,8.80
2019-03-09T06:52:15.538Z,9.20
2019-03-09T06:59:00.399Z,9.50
2019-03-09T07:05:45.434Z,9.60
2019-03-09T07:12:30.471Z,9.70
2019-03-09T07:19:15.314Z,9.70
2019-03-09T07:26:00.459Z,10.00
2019-03-09T07:32:45.510Z,10.30
2019-03-09T07:39:30.466Z,10.70
2019-03-09T07:46:15.324Z,12.80
2019-03-09T07:53:00.243Z,14.90
2019-03-09T07:59:45.112Z,13.10
2019-03-09T08:06:29.963Z,12.20
2019-03-09T08:13:14.822Z,12.00
2019-03-09T08:20:00.894Z,11.80
2019-03-09T08:26:46.963Z,11.50
2019-03-09T08:33:31.824Z,11.80
2019-03-09T08:40:18.101Z,11.90
2019-03-09T08:47:03.020Z,11.60
2019-03-09T08:53:47.880Z,11.50
2019-03-09T09:00:33.697Z,11.60
2019-03-09T09:07:18.755Z,11.90
2019-03-09T09:14:03.747Z,12.00
2019-03-09T09:20:50.339Z,12.30
2019-03-09T09:27:35.232Z,12.40
2019-03-09T09:34:20.092Z,12.80
2019-03-09T09:41:04.949Z,13.70
2019-03-09T09:47:50.093Z,13.30
2019-03-09T09:54:35.019Z,12.90
2019-03-09T10:01:19.875Z,12.80
2019-03-09T10:08:04.898Z,12.70
2019-03-09T10:14:49.754Z,12.50
2019-03-09T10:21:34.610Z,12.80
2019-03-09T10:28:19.458Z,12.90
2019-03-09T10:35:05.459Z,12.70
2019-03-09T10:41:50.376Z,12.40
2019-03-09T10:48:35.227Z,12.80
2019-03-09T10:55:25.062Z,13.30
2019-03-09T11:02:10.150Z,13.50
2019-03-09T11:08:55.011Z,13.70
2019-03-09T11:15:40.841Z,13.40
2019-03-09T11:22:26.699Z,13.10
2019-03-09T11:29:11.756Z,13.10
2019-03-09T11:35:59.794Z,13.20
2019-03-09T11:42:45.080Z,13.30
2019-03-09T11:49:30.618Z,13.30
2019-03-09T11:56:15.594Z,13.50
2019-03-09T12:03:00.455Z,13.40
2019-03-09T12:09:45.337Z,13.10
2019-03-09T12:16:30.683Z,13.00
2019-03-09T12:23:21.346Z,12.80
2019-03-09T12:30:09.810Z,12.90
2019-03-09T12:36:54.936Z,12.90
2019-03-09T12:43:39.850Z,12.90
2019-03-09T12:50:25.038Z,12.90
2019-03-09T12:57:09.910Z,13.00
2019-03-09T13:03:55.908Z,13.20
2019-03-09T13:10:40.843Z,13.50
2019-03-09T13:17:26.139Z,13.70
2019-03-09T13:24:11.058Z,14.00
2019-03-09T13:30:55.928Z,13.90
2019-03-09T13:37:40.855Z,13.90
2019-03-09T13:44:25.714Z,13.80
2019-03-09T13:51:10.571Z,13.70
2019-03-09T13:57:55.433Z,13.60
2019-03-09T14:04:40.375Z,13.30
2019-03-09T14:11:25.299Z,12.90
2019-03-09T14:18:10.323Z,12.70
2019-03-09T14:24:55.211Z,12.50
2019-03-09T14:31:40.204Z,12.20
2019-03-09T14:38:25.064Z,12.10
2019-03-09T14:45:15.466Z,12.40
2019-03-09T14:52:00.997Z,12.70
2019-03-09T14:58:45.922Z,12.70
2019-03-09T15:05:31.227Z,12.70
2019-03-09T15:12:16.087Z,13.00
2019-03-09T15:19:01.167Z,13.40
2019-03-09T15:25:47.009Z,13.40
2019-03-09T15:32:32.072Z,13.20
2019-03-09T15:39:17.268Z,13.00
2019-03-09T15:46:02.199Z,12.70
2019-03-09T15:52:47.984Z,12.60
2019-03-09T15:59:33.662Z,12.70
2019-03-09T16:06:18.674Z,12.60
2019-03-09T16:13:03.525Z,12.40
2019-03-09T16:19:49.833Z,12.20
2019-03-09T16:26:35.718Z,12.30
2019-03-09T16:33:20.648Z,12.30
2019-03-09T16:40:08.727Z,12.30
2019-03-09T16:46:53.782Z,12.20
2019-03-09T16:53:38.969Z,12.10
2019-03-09T17:00:25.318Z,12.00
2019-03-09T17:07:10.411Z,11.70
2019-03-09T17:13:55.802Z,11.60
2019-03-09T17:20:41.717Z,11.50
2019-03-09T17:27:28.159Z,11.40
2019-03-09T17:34:13.131Z,11.30
2019-03-09T17:40:57.988Z,11.20
2019-03-09T17:47:43.055Z,11.10
2019-03-09T17:54:28.522Z,11.20
2019-03-09T18:01:13.579Z,11.20
2019-03-09T18:07:59.102Z,11.30
2019-03-09T18:14:44.084Z,11.30
2019-03-09T18:21:29.015Z,11.20
2019-03-09T18:28:13.947Z,11.20
2019-03-09T18:34:59.867Z,11.20
2019-03-09T18:41:45.799Z,11.30
2019-03-09T18:48:30.731Z,11.20
2019-03-09T18:55:16.340Z,11.00
2019-03-09T19:02:01.410Z,11.00
2019-03-09T19:08:47.721Z,11.10
2019-03-09T19:15:32.934Z,11.20
2019-03-09T19:22:18.106Z,11.20
2019-03-09T19:29:03.506Z,11.20
2019-03-09T19:35:49.334Z,11.30
2019-03-09T19:42:34.479Z,11.30
2019-03-09T19:49:20.236Z,11.40
2019-03-09T19:56:05.602Z,11.50
2019-03-09T20:02:51.037Z,11.50
2019-03-09T20:09:36.126Z,11.40
2019-03-09T20:16:21.194Z,11.50
2019-03-09T20:23:06.124Z,11.40
2019-03-09T20:29:51.382Z,11.40
2019-03-09T20:36:36.402Z,11.40
2019-03-09T20:43:21.739Z,11.50
2019-03-09T20:50:10.812Z,11.60
2019-03-09T20:56:55.923Z,11.60
2019-03-09T21:03:41.070Z,11.50
2019-03-09T21:10:26.071Z,11.40
2019-03-09T21:17:10.999Z,11.50
2019-03-09T21:23:56.004Z,11.50
2019-03-09T21:30:41.165Z,11.40
2019-03-09T21:37:26.907Z,11.30
2019-03-09T21:44:13.692Z,11.10
2019-03-09T21:50:58.662Z,11.10
2019-03-09T21:57:43.684Z,11.10
2019-03-09T22:04:28.667Z,11.00
2019-03-09T22:11:13.663Z,11.00
2019-03-09T22:17:58.771Z,11.00
2019-03-09T22:24:44.093Z,11.00
2019-03-09T22:31:28.960Z,11.00
2019-03-09T22:38:15.021Z,11.00
2019-03-09T22:45:00.355Z,11.00
2019-03-09T22:51:45.242Z,11.10
2019-03-09T22:58:30.107Z,11.20
2019-03-09T23:05:15.557Z,11.10
2019-03-09T23:12:00.539Z,11.10
2019-03-09T23:18:45.496Z,11.20
2019-03-09T23:25:30.351Z,11.30
2019-03-09T23:32:15.219Z,11.30
2019-03-09T23:39:00.218Z,11.20
2019-03-09T23:45:48.971Z,11.10
2019-03-09T23:52:34.248Z,11.10
2019-03-09T23:59:19.379Z,11.10
